KNSE/NSE METAR and TAF weather

Enter ICAO airport designator
Station Type Date Time Source
KNSE METAR 2020/09/25 20:56 UTC NOAA

KNSE 252056Z 34004KT 10SM SCT044 BKN250 28/20 A2994 RMK AO2 SLP124 T02830200 56017 $


Station Type Date Time Source
KNSE Decoded METAR 2020/09/25 20:56 UTC NOAA

MILTON WHITING FIELD (NORTH), FL, United States (KNSE) 30-44N 87-01W 60M
Sep 25, 2020 - 04:56 PM EDT / 2020.09.25 2056 UTC
Wind: from the NNW (340 degrees) at 5 MPH (4 KT):0
Visibility: 10 mile(s):0
Sky conditions: mostly cloudy
Temperature: 82.9 F (28.3 C)
Dew Point: 68.0 F (20.0 C)
Relative Humidity: 60%
Pressure (altimeter): 29.94 in. Hg (1013 hPa)
Pressure tendency: 0.05 inches (1.7 hPa) lower than three hours ago
ob: KNSE 252056Z 34004KT 10SM SCT044 BKN250 28/20 A2994 RMK AO2 SLP124 T02830200 56017
cycle: 21

Station Type Date Time Source
KNSE TAF 2020/09/25 18:15 UTC NOAA

TAF
AMD KNSE 2518/2615 VRB06KT 9999 SCT025 SCT035 BKN050 QNH2993INS
TEMPO 2518/2520 BKN025 BKN035
FM252100 VRB06KT 9999 FEW035 SCT050 QNH2992INS
FM260200 VRB05KT 9999 FEW030 QNH2998INS
FM260700 VRB03KT 6000 BR FEW015 SCT025 QNH2997INS
TEMPO 2610/2614 3200 BR SCT008 BKN015 T28/2519Z T19/2611Z
AMD FN20031

Example: see airport list